Latest Weather Observations for Gove Airport

IDD60801

Issued at 6:01 pm CST Friday 20 October 2017 (issued every 30 minutes, with the page automatically refreshed every 10 minutes)

About weather observations | Map of weather stations | Latest weather observations for NT | Other Formats
Station Details ID: 014508 Name: GOVE AIRPORT Lat: -12.27 Lon: 136.82 Height: 51.6 m
Data from the previous 72 hours. | See also: Recent months at Gove Airport
Date/Time
CST
Temp
°C
App
Temp
°C
Dew
Point
°C
Rel
Hum
%
Delta-T
°C
Wind Press
QNH
hPa
Press
MSL
hPa
Rain since
9am
mm
Dir  Spd
km/h
Gust
km/h
Spd
kts
Gust
kts
20/06:00pm 29.0 31.4 22.9 69 4.2 E 15 17 8 9 1011.2 1010.8 0.0
20/05:30pm 29.8 31.7 22.0 63 5.3 E 15 20 8 11 1011.0 1010.6 0.0
20/05:00pm 30.4 32.1 21.7 59 5.9 ESE 15 20 8 11 1010.8 1010.4 0.0
20/04:30pm 31.0 31.8 21.3 56 6.5 E 19 24 10 13 1010.7 1010.3 0.0
20/04:00pm 31.3 32.0 21.2 55 6.8 E 19 28 10 15 1010.8 1010.4 0.0
20/03:30pm 32.1 33.4 21.6 53 7.1 ESE 17 24 9 13 1010.9 1010.5 0.0
20/03:00pm 32.1 32.3 20.6 50 7.7 E 20 28 11 15 1011.1 1010.7 0.0
20/02:30pm 32.6 33.1 21.2 51 7.7 E 20 30 11 16 1011.1 1010.7 0.0
20/02:00pm 32.5 31.3 19.3 45 8.7 E 24 32 13 17 1011.4 1011.0 0.0
20/01:30pm 32.7 32.4 19.5 45 8.7 E 20 33 11 18 1011.7 1011.3 0.0
20/01:00pm 33.3 32.7 18.4 41 9.7 E 19 28 10 15 1012.0 1011.7 0.0
20/12:30pm 32.1 32.3 20.2 49 7.9 E 19 28 10 15 1012.5 1012.2 0.0
20/12:00pm 32.3 32.9 21.0 51 7.6 E 19 32 10 17 1013.0 1012.7 0.0
20/11:30am 32.2 32.4 21.4 53 7.3 E 22 28 12 15 1013.4 1013.1 0.0
20/11:00am 31.0 31.7 21.2 56 6.6 E 19 30 10 16 1013.6 1013.3 0.0
20/10:30am 31.5 31.7 21.4 55 6.8 ESE 22 35 12 19 1013.7 1013.4 0.0
20/10:00am 32.0 32.9 21.5 53 7.1 ESE 19 28 10 15 1013.7 1013.4 0.0
20/09:30am 30.6 31.6 22.1 60 5.8 ESE 20 30 11 16 1013.6 1013.3 0.0
20/09:00am 31.3 32.4 22.0 57 6.3 ESE 19 26 10 14 1013.3 1013.0 0.0
20/08:30am 30.3 30.3 21.0 57 6.2 ESE 22 30 12 16 1013.3 1013.0 0.0
20/08:00am 29.5 31.6 23.1 68 4.4 ESE 17 24 9 13 1012.9 1012.6 0.0
20/07:30am 28.1 30.9 23.0 74 3.5 SE 13 20 7 11 1012.5 1012.2 0.0
20/07:16am 27.5 31.2 23.3 78 2.9 SE 9 15 5 8 1012.2 1011.9 0.0
20/07:00am 26.0 30.0 23.1 84 2.0 SSE 7 9 4 5 1011.9 1011.6 0.0
20/06:52am 24.5 27.9 21.6 84 1.9 S 6 7 3 4 1011.8 1011.4 0.0
20/06:30am 22.8 27.1 21.1 90 1.1 CALM 0 0 0 0 1011.5 1011.1 0.0
20/06:00am 21.9 26.0 20.7 93 0.8 CALM 0 0 0 0 1011.2 1010.8 0.0
20/05:30am 21.9 25.9 20.5 92 0.9 CALM 0 0 0 0 1010.5 1010.1 0.0
20/05:00am 22.1 26.2 20.7 92 0.9 CALM 0 0 0 0 1010.2 1009.8 0.0
20/04:30am 22.1 26.3 20.9 93 0.8 CALM 0 0 0 0 1009.7 1009.3 0.0
20/04:00am 21.9 25.1 20.4 91 1.0 SSW 4 6 2 3 1009.5 1009.1 0.0
20/03:30am 22.4 26.6 21.0 92 0.9 CALM 0 0 0 0 1009.6 1009.2 0.0
20/03:00am 22.3 25.8 20.3 88 1.3 SSW 2 6 1 3 1009.4 1009.0 0.0
20/02:30am 22.7 26.9 20.9 89 1.2 CALM 0 6 0 3 1009.6 1009.2 0.0
20/02:00am 23.1 27.3 21.0 88 1.4 CALM 0 0 0 0 1009.9 1009.5 0.0
20/01:30am 23.4 27.7 21.1 87 1.5 CALM 0 0 0 0 1010.1 1009.7 0.0
20/01:00am 23.7 26.0 20.6 83 2.0 S 9 11 5 6 1010.6 1010.2 0.0
20/12:30am 24.4 29.0 21.7 85 1.8 CALM 0 0 0 0 1011.0 1010.6 0.0
20/12:00am 25.1 29.6 21.5 80 2.4 CALM 0 4 0 2 1011.5 1011.1 0.0
 
Date/Time
CST
Temp
°C
App
Temp
°C
Dew
Point
°C
Rel
Hum
%
Delta-T
°C
Wind Press
QNH
hPa
Press
MSL
hPa
Rain since
9am
mm
Dir  Spd
km/h
Gust
km/h
Spd
kts
Gust
kts
19/11:30pm 25.6 29.2 22.0 80 2.4 ESE 6 7 3 4 1011.7 1011.3 0.0
19/11:00pm 25.5 28.8 21.9 80 2.4 ESE 7 9 4 5 1012.3 1012.0 0.0
19/10:30pm 26.1 29.4 21.9 77 2.8 ESE 7 13 4 7 1012.5 1012.2 0.0
19/10:00pm 26.3 29.4 22.1 77 2.8 SE 9 11 5 6 1012.5 1012.2 0.0
19/09:30pm 26.5 29.5 22.0 76 3.0 ESE 9 13 5 7 1012.1 1011.8 0.0
19/09:00pm 26.8 29.8 22.0 75 3.2 E 9 13 5 7 1011.6 1011.2 0.0
19/08:30pm 26.5 30.1 22.0 76 3.0 SE 6 7 3 4 1011.4 1011.0 0.0
19/08:00pm 26.8 29.8 21.9 74 3.3 SE 9 11 5 6 1010.9 1010.5 0.0
19/07:30pm 27.3 30.2 21.8 72 3.7 ESE 9 13 5 7 1010.6 1010.2 0.0
19/07:00pm 27.6 29.6 21.6 70 4.0 ESE 13 15 7 8 1010.3 1009.9 0.0
19/06:30pm 27.9 29.6 21.6 68 4.2 ESE 15 20 8 11 1009.7 1009.3 0.0
19/06:00pm 28.3 29.2 21.6 67 4.5 E 19 24 10 13 1009.4 1009.0 0.0
19/05:30pm 29.2 30.3 21.3 62 5.3 ESE 17 22 9 12 1009.0 1008.6 0.0
19/05:00pm 29.6 29.4 20.6 58 6.0 SE 22 28 12 15 1008.7 1008.3 0.0
19/04:30pm 31.0 31.1 20.3 53 7.1 ESE 20 24 11 13 1008.6 1008.2 0.0
19/04:00pm 31.5 31.5 19.7 49 7.8 ESE 19 26 10 14 1008.4 1008.0 0.0
19/03:30pm 31.3 30.9 19.4 49 7.8 E 20 28 11 15 1008.5 1008.1 0.0
19/03:00pm 31.9 32.0 19.1 46 8.4 E 17 28 9 15 1008.4 1008.0 0.0
19/02:30pm 32.4 31.6 19.3 46 8.6 ESE 22 33 12 18 1008.8 1008.4 0.0
19/02:00pm 32.5 31.7 18.5 43 9.1 ESE 20 30 11 16 1009.1 1008.7 0.0
19/01:30pm 32.1 31.1 17.6 42 9.3 SE 19 30 10 16 1009.4 1009.0 0.0
19/01:00pm 32.3 32.5 19.4 46 8.5 ESE 17 22 9 12 1009.8 1009.4 0.0
19/12:30pm 31.0 31.0 20.1 52 7.2 ENE 20 32 11 17 1010.3 1009.9 0.0
19/12:00pm 31.7 30.0 16.3 39 9.7 E 20 28 11 15 1010.6 1010.2 0.0
19/11:30am 32.2 31.2 16.5 39 9.9 E 17 26 9 14 1010.8 1010.4 0.0
19/11:00am 31.5 31.4 17.8 44 8.8 NE 15 24 8 13 1011.0 1010.6 0.0
19/10:30am 31.3 31.3 17.1 42 9.0 NE 13 22 7 12 1011.1 1010.7 0.0
19/10:00am 30.6 31.3 20.5 54 6.7 ENE 17 24 9 13 1011.3 1010.9 0.0
19/09:30am 29.7 29.6 19.6 54 6.6 ENE 19 26 10 14 1011.4 1011.0 0.0
19/09:00am 28.6 34.0 28.2 98 0.3 NE 17 24 9 13 1011.3 1010.9 0.0
19/08:30am 29.3 31.4 22.5 67 4.6 NE 15 22 8 12 1011.1 1010.7 0.0
19/08:00am 28.2 30.9 22.9 73 3.6 E 13 17 7 9 1010.9 1010.5 0.0
19/07:30am 26.1 30.2 23.0 83 2.1 W 6 9 3 5 1010.4 1010.0 0.0
19/07:00am 24.0 27.9 21.9 88 1.4 W 4 7 2 4 1009.8 1009.4 0.0
19/06:30am 21.3 25.1 20.1 93 0.8 CALM 0 0 0 0 1009.4 1009.0 0.0
19/06:00am 20.8 24.4 19.7 93 0.7 CALM 0 0 0 0 1009.2 1008.8 0.0
19/05:30am 20.6 23.2 19.3 92 0.8 W 4 6 2 3 1008.9 1008.5 0.0
19/05:00am 20.4 22.5 19.0 92 0.9 WSW 6 9 3 5 1008.5 1008.1 0.0
19/04:30am 21.2 24.9 20.0 93 0.8 CALM 0 0 0 0 1008.2 1007.8 0.0
19/04:00am 21.6 25.3 20.0 91 1.0 CALM 0 0 0 0 1008.0 1007.6 0.0
19/03:30am 21.9 25.7 20.2 90 1.1 CALM 0 0 0 0 1008.0 1007.6 0.0
19/03:00am 22.4 25.6 20.6 89 1.2 ENE 4 6 2 3 1008.0 1007.6 0.0
19/02:30am 22.7 26.9 20.9 89 1.2 CALM 0 0 0 0 1008.1 1007.7 0.0
19/02:00am 23.5 26.6 21.1 86 1.6 NNE 6 7 3 4 1008.5 1008.1 0.0
19/01:30am 24.0 27.2 21.6 86 1.6 ESE 7 7 4 4 1008.8 1008.4 0.0
19/01:00am 25.1 28.2 22.1 83 2.0 E 9 9 5 5 1009.3 1008.9 0.0
19/12:30am 25.0 28.8 21.7 82 2.2 ENE 4 7 2 4 1009.8 1009.4 0.0
19/12:00am 25.7 28.8 22.1 80 2.4 NE 9 11 5 6 1010.0 1009.6 0.0
 
Date/Time
CST
Temp
°C
App
Temp
°C
Dew
Point
°C
Rel
Hum
%
Delta-T
°C
Wind Press
QNH
hPa
Press
MSL
hPa
Rain since
9am
mm
Dir  Spd
km/h
Gust
km/h
Spd
kts
Gust
kts
18/11:30pm 26.0 29.7 22.3 80 2.5 NE 6 11 3 6 1010.6 1010.2 0.0
18/11:00pm 26.4 29.5 22.2 78 2.8 E 9 13 5 7 1011.0 1010.6 0.0
18/10:30pm 26.3 29.6 22.6 80 2.5 E 9 11 5 6 1011.1 1010.7 0.0
18/10:00pm 26.4 30.2 22.7 80 2.5 ENE 7 9 4 5 1011.0 1010.6 0.0
18/09:30pm 26.7 30.0 22.6 78 2.8 E 9 13 5 7 1010.6 1010.2 0.0
18/09:00pm 26.7 29.7 22.7 79 2.7 E 11 13 6 7 1010.1 1009.7 0.0
18/08:30pm 26.8 30.0 23.1 80 2.5 ESE 11 15 6 8 1009.7 1009.3 0.0
18/08:00pm 27.2 30.4 23.1 78 2.8 ESE 11 15 6 8 1009.4 1009.0 0.0
18/07:30pm 27.5 30.9 23.3 78 2.9 ESE 11 15 6 8 1009.2 1008.8 0.0
18/07:00pm 27.8 31.6 24.0 80 2.6 ESE 11 15 6 8 1008.8 1008.4 0.0
18/06:30pm 28.2 30.8 24.6 81 2.5 ESE 19 20 10 11 1008.5 1008.1 0.0
18/06:00pm 29.1 32.0 25.1 79 2.8 ESE 19 24 10 13 1008.2 1007.8 0.0
18/05:30pm 29.7 33.1 25.3 77 3.1 SE 17 24 9 13 1007.8 1007.4 0.0
18/05:00pm 30.4 33.4 25.6 75 3.4 SE 20 28 11 15 1007.3 1007.0 0.0
18/04:30pm 31.0 34.4 26.1 75 3.5 SE 20 28 11 15 1007.1 1006.8 0.0
18/04:00pm 31.6 35.1 26.0 72 4.0 ESE 19 26 10 14 1007.0 1006.7 0.0
18/03:30pm 31.6 35.0 25.9 72 4.1 E 19 24 10 13 1007.1 1006.8 0.0
18/03:00pm 31.7 34.8 26.3 73 3.9 NE 22 30 12 16 1007.2 1006.9 0.0
18/02:30pm 31.8 34.8 26.1 72 4.1 ENE 22 30 12 16 1007.2 1006.9 0.0
18/02:00pm 32.8 36.7 26.0 67 4.9 E 17 28 9 15 1007.3 1007.0 0.0
18/01:30pm 33.0 35.5 24.8 62 5.8 E 20 28 11 15 1007.9 1007.5 0.0
18/01:00pm 32.7 34.6 22.8 56 6.8 ENE 17 28 9 15 1008.3 1007.9 0.0
18/12:30pm 31.9 33.7 21.9 55 6.8 ENE 15 26 8 14 1008.9 1008.5 0.0
18/12:00pm 32.7 34.2 21.3 51 7.7 ENE 15 24 8 13 1009.5 1009.1 0.0
18/11:30am 32.4 33.2 20.6 49 7.9 NE 17 24 9 13 1009.9 1009.5 0.0
18/11:00am 31.8 33.0 20.6 51 7.5 ENE 15 24 8 13 1010.3 1009.9 0.0
18/10:30am 31.6 33.7 21.0 53 7.1 E 11 19 6 10 1010.7 1010.3 0.0
18/10:00am 31.5 33.1 21.4 55 6.8 E 15 19 8 10 1011.1 1010.7 0.0
18/09:30am 30.7 32.4 21.0 56 6.5 E 13 26 7 14 1011.3 1010.9 0.0
18/09:00am 30.8 32.3 20.6 54 6.8 ENE 13 20 7 11 1011.5 1011.1 0.0
18/08:30am 29.9 32.9 21.9 62 5.4 ENE 9 15 5 8 1011.5 1011.1 0.0
18/08:00am 29.0 31.9 22.5 68 4.4 NE 11 15 6 8 1011.3 1010.9 0.0
18/07:30am 27.6 31.6 23.1 76 3.1 ENE 7 9 4 5 1010.9 1010.5 0.0
18/07:00am 26.6 32.0 23.2 81 2.3 CALM 0 0 0 0 1010.2 1009.8 0.0
18/06:30am 24.2 29.3 22.6 91 1.1 CALM 0 0 0 0 1009.8 1009.4 0.0
18/06:18am 23.4 28.2 22.1 92 0.9 CALM 0 0 0 0 1009.6 1009.2 0.0
18/06:00am 23.2 27.9 22.0 93 0.8 CALM 0 0 0 0 1009.4 1009.0 0.0
18/05:30am 23.5 28.3 22.2 92 0.9 CALM 0 0 0 0 1009.1 1008.7 0.0
18/05:03am 23.8 28.8 22.5 92 0.9 CALM 0 0 0 0 1008.6 1008.2 0.0
18/05:00am 23.8 28.8 22.5 92 0.9 CALM 0 0 0 0 1008.6 1008.2 0.0
18/04:30am 24.2 29.3 22.6 91 1.1 CALM 0 0 0 0 1008.3 1007.9 0.0
18/04:00am 24.0 29.0 22.5 91 1.0 CALM 0 0 0 0 1008.1 1007.7 0.0
18/03:30am 23.7 28.5 22.1 91 1.1 CALM 0 0 0 0 1008.0 1007.6 0.0
18/03:00am 23.9 27.7 22.4 91 1.0 SSW 6 9 3 5 1008.0 1007.6 0.0
18/02:30am 23.9 28.7 22.1 90 1.2 CALM 0 2 0 1 1007.9 1007.5 0.0
18/02:00am 24.5 29.4 22.4 88 1.4 CALM 0 0 0 0 1008.1 1007.7 0.0
18/01:30am 24.7 29.4 22.6 88 1.4 SW 2 6 1 3 1008.5 1008.1 0.0
18/01:00am 25.1 28.9 22.4 85 1.8 SE 6 7 3 4 1008.8 1008.4 0.0
18/12:30am 25.7 29.5 22.7 83 2.0 E 7 11 4 6 1009.0 1008.6 0.0
18/12:00am 26.0 30.2 23.1 84 2.0 ESE 6 9 3 5 1009.2 1008.8 0.0
 
Date/Time
CST
Temp
°C
App
Temp
°C
Dew
Point
°C
Rel
Hum
%
Delta-T
°C
Wind Press
QNH
hPa
Press
MSL
hPa
Rain since
9am
mm
Dir  Spd
km/h
Gust
km/h
Spd
kts
Gust
kts
17/11:30pm 26.7 30.9 23.2 81 2.4 E 6 9 3 5 1009.6 1009.2 0.0
17/11:00pm 26.8 30.4 23.1 80 2.5 E 9 13 5 7 1009.6 1009.2 0.0
17/10:30pm 26.6 30.8 23.1 81 2.4 ENE 6 9 3 5 1009.6 1009.2 0.0
17/10:00pm 26.6 30.5 22.9 80 2.5 ENE 7 11 4 6 1009.2 1008.8 0.0
17/09:30pm 26.8 30.3 22.8 79 2.7 E 9 13 5 7 1009.0 1008.6 0.0
17/09:00pm 27.0 30.3 22.6 77 3.0 E 9 13 5 7 1008.8 1008.4 0.0
17/08:30pm 27.2 30.5 22.5 75 3.2 E 9 13 5 7 1008.6 1008.2 0.0
17/08:00pm 27.3 30.5 23.1 78 2.9 E 11 15 6 8 1008.3 1007.9 0.0
17/07:30pm 27.4 30.4 22.7 75 3.2 ENE 11 15 6 8 1007.7 1007.3 0.0
17/07:00pm 27.7 30.3 22.7 74 3.4 NE 13 17 7 9 1007.2 1006.9 0.0
17/06:30pm 27.9 30.6 22.8 74 3.5 ENE 13 20 7 11 1006.9 1006.6 0.0

Other Formats:

Comma delimited format used in spreadsheet applications
http://www.bom.gov.au/fwo/IDD60801/IDD60801.94150.axf

JavaScript Object Notation format (JSON) in row-major order
http://www.bom.gov.au/fwo/IDD60801/IDD60801.94150.json